createdAt,value
2022-08-17T00:02:06.562Z,0.22
2022-08-17T00:05:28.556Z,0.30
2022-08-17T00:08:41.984Z,0.22
2022-08-17T00:12:43.734Z,0.30
2022-08-17T00:15:10.527Z,0.20
2022-08-17T00:18:58.401Z,0.30
2022-08-17T00:22:29.560Z,0.38
2022-08-17T00:24:58.388Z,0.20
2022-08-17T00:28:00.154Z,0.20
2022-08-17T00:31:01.997Z,0.20
2022-08-17T00:34:06.267Z,0.30
2022-08-17T00:37:07.821Z,0.20
2022-08-17T00:40:12.641Z,0.30
2022-08-17T00:43:19.460Z,0.20
2022-08-17T00:46:24.753Z,0.20
2022-08-17T00:49:26.419Z,0.20
2022-08-17T00:52:36.080Z,0.10
2022-08-17T00:55:37.717Z,0.30
2022-08-17T00:58:40.202Z,0.30
2022-08-17T01:01:42.372Z,0.20
2022-08-17T01:04:47.128Z,0.20
2022-08-17T01:07:50.978Z,0.30
2022-08-17T01:10:58.196Z,0.25
2022-08-17T01:14:04.093Z,0.30
2022-08-17T01:17:07.052Z,0.28
2022-08-17T01:20:09.293Z,0.25
2022-08-17T01:23:10.953Z,0.13
2022-08-17T01:26:18.285Z,0.20
2022-08-17T01:29:21.662Z,0.15
2022-08-17T01:32:23.521Z,0.25
2022-08-17T01:35:25.234Z,0.20
2022-08-17T01:38:31.652Z,0.30
2022-08-17T01:41:34.745Z,0.20
2022-08-17T01:44:36.806Z,0.25
2022-08-17T01:47:41.773Z,0.30
2022-08-17T01:50:45.437Z,0.30
2022-08-17T01:53:52.735Z,0.20
2022-08-17T01:56:54.310Z,0.20
2022-08-17T01:59:55.877Z,0.30
2022-08-17T02:02:57.490Z,0.20
2022-08-17T02:05:59.071Z,0.25
2022-08-17T02:09:03.200Z,0.30
2022-08-17T02:12:05.853Z,0.20
2022-08-17T02:15:27.644Z,0.22
2022-08-17T02:18:30.187Z,0.30
2022-08-17T02:21:32.454Z,0.30
2022-08-17T02:25:00.187Z,0.20
2022-08-17T02:27:59.908Z,0.30
2022-08-17T02:31:11.121Z,0.30
2022-08-17T02:34:12.838Z,0.30
2022-08-17T02:37:17.593Z,0.20
2022-08-17T02:40:28.606Z,0.30
2022-08-17T02:43:38.116Z,0.15
2022-08-17T02:46:39.696Z,0.30
2022-08-17T02:49:42.069Z,0.32
2022-08-17T02:53:01.828Z,0.20
2022-08-17T02:56:04.482Z,0.22
2022-08-17T02:59:06.163Z,0.30
2022-08-17T03:02:10.633Z,0.30
2022-08-17T03:05:15.588Z,0.20
2022-08-17T03:08:18.034Z,0.30
2022-08-17T03:11:19.593Z,0.25
2022-08-17T03:14:21.508Z,0.20
2022-08-17T03:17:27.874Z,0.22
2022-08-17T03:20:31.751Z,0.28
2022-08-17T03:23:33.764Z,0.20
2022-08-17T03:26:35.483Z,0.20
2022-08-17T03:29:37.110Z,0.30
2022-08-17T03:32:41.101Z,0.25
2022-08-17T03:35:42.760Z,0.15
2022-08-17T03:38:44.318Z,0.20
2022-08-17T03:41:46.681Z,0.20
2022-08-17T03:44:52.829Z,0.20
2022-08-17T03:48:17.645Z,0.20
2022-08-17T03:51:43.080Z,0.30
2022-08-17T03:55:03.798Z,0.20
2022-08-17T03:58:05.490Z,0.20
2022-08-17T04:01:07.415Z,0.20
2022-08-17T04:04:09.132Z,0.20
2022-08-17T04:07:10.876Z,0.10
2022-08-17T04:10:14.134Z,0.10
2022-08-17T04:13:16.273Z,0.20
2022-08-17T04:16:26.550Z,0.20
2022-08-17T04:19:28.143Z,0.20
2022-08-17T04:22:33.849Z,0.20
2022-08-17T04:25:38.537Z,0.20
2022-08-17T04:28:43.096Z,0.20
2022-08-17T04:31:44.832Z,0.10
2022-08-17T04:34:46.436Z,0.20
2022-08-17T04:37:48.344Z,0.20
2022-08-17T04:41:09.929Z,0.20
2022-08-17T04:44:12.030Z,0.20
2022-08-17T04:47:14.076Z,0.15
2022-08-17T04:50:15.643Z,0.10
2022-08-17T04:53:18.537Z,0.20
2022-08-17T04:56:20.315Z,0.20
2022-08-17T04:59:22.636Z,0.17
2022-08-17T05:02:24.225Z,0.20
2022-08-17T05:05:32.365Z,0.15
2022-08-17T05:08:34.240Z,0.13
2022-08-17T05:11:36.465Z,0.10
2022-08-17T05:14:39.600Z,0.10
2022-08-17T05:17:41.168Z,0.13
2022-08-17T05:20:44.177Z,0.20
2022-08-17T05:23:49.194Z,0.20
2022-08-17T05:26:56.629Z,0.30
2022-08-17T05:29:58.171Z,0.30
2022-08-17T05:33:05.537Z,0.25
2022-08-17T05:36:09.895Z,0.10
2022-08-17T05:39:32.073Z,0.20
2022-08-17T05:42:33.700Z,0.20
2022-08-17T05:45:55.755Z,0.20
2022-08-17T05:49:05.832Z,0.20
2022-08-17T05:52:07.497Z,0.20
2022-08-17T05:55:35.636Z,0.35
2022-08-17T05:59:12.630Z,0.30
2022-08-17T06:02:32.424Z,0.20
2022-08-17T06:06:11.436Z,0.30
2022-08-17T06:09:17.911Z,0.22
2022-08-17T06:12:41.125Z,0.20
2022-08-17T06:15:49.483Z,0.30
2022-08-17T06:19:06.565Z,0.20
2022-08-17T06:22:12.676Z,0.20
2022-08-17T06:25:18.085Z,0.30
2022-08-17T06:28:38.023Z,0.30
2022-08-17T06:31:40.849Z,0.30
2022-08-17T06:34:44.969Z,0.30
2022-08-17T06:38:01.542Z,0.40
2022-08-17T06:41:38.448Z,0.40
2022-08-17T06:44:51.186Z,0.40
2022-08-17T06:48:00.031Z,0.40
2022-08-17T06:51:14.938Z,0.40
2022-08-17T06:54:36.752Z,0.30
2022-08-17T06:57:45.256Z,0.28
2022-08-17T07:00:48.924Z,0.30
2022-08-17T07:03:54.785Z,0.30
2022-08-17T07:07:30.069Z,0.40
2022-08-17T07:10:38.166Z,0.50
2022-08-17T07:14:17.323Z,0.40
2022-08-17T07:17:21.537Z,0.30
2022-08-17T07:20:50.445Z,0.50
2022-08-17T07:24:00.697Z,0.20
2022-08-17T07:27:23.279Z,0.35
2022-08-17T07:30:50.337Z,0.25
2022-08-17T07:34:06.818Z,0.30
2022-08-17T07:37:08.422Z,0.28
2022-08-17T07:40:28.718Z,0.30
2022-08-17T07:43:31.079Z,0.30
2022-08-17T07:46:53.832Z,0.35
2022-08-17T07:49:55.458Z,0.40
2022-08-17T07:52:59.202Z,0.32
2022-08-17T07:56:00.924Z,0.40
2022-08-17T07:59:21.844Z,0.45
2022-08-17T08:02:41.332Z,0.30
2022-08-17T08:05:50.956Z,0.47
2022-08-17T08:08:55.962Z,0.30
2022-08-17T08:11:57.563Z,0.50
2022-08-17T08:15:01.221Z,0.30
2022-08-17T08:18:06.243Z,0.40
2022-08-17T08:21:20.629Z,0.40
2022-08-17T08:24:59.837Z,0.30
2022-08-17T08:28:43.531Z,0.30
2022-08-17T08:31:50.925Z,0.30
2022-08-17T08:35:17.439Z,0.47
2022-08-17T08:38:53.750Z,0.32
2022-08-17T08:41:55.429Z,0.30
2022-08-17T08:45:26.232Z,0.40
2022-08-17T08:48:53.344Z,0.30
2022-08-17T08:52:01.750Z,0.25
2022-08-17T08:55:15.437Z,0.40
2022-08-17T08:58:31.691Z,0.40
2022-08-17T09:01:56.982Z,0.30
2022-08-17T09:05:20.210Z,0.30
2022-08-17T09:08:46.446Z,0.40
2022-08-17T09:12:02.873Z,0.30
2022-08-17T09:15:32.106Z,0.30
2022-08-17T09:19:01.747Z,0.28
2022-08-17T09:22:17.548Z,0.30
2022-08-17T09:25:28.989Z,0.30
2022-08-17T09:28:36.362Z,0.25
2022-08-17T09:31:48.878Z,0.30
2022-08-17T09:34:54.931Z,0.20
2022-08-17T09:38:41.728Z,0.30
2022-08-17T09:41:51.932Z,0.30
2022-08-17T09:45:21.680Z,0.40
2022-08-17T09:48:29.045Z,0.30
2022-08-17T09:51:45.621Z,0.30
2022-08-17T09:54:51.013Z,0.30
2022-08-17T09:58:09.836Z,0.20
2022-08-17T10:01:36.464Z,0.30
2022-08-17T10:05:09.734Z,0.30
2022-08-17T10:08:17.107Z,0.30
2022-08-17T10:11:48.149Z,0.30
2022-08-17T10:15:08.145Z,0.50
2022-08-17T10:18:34.957Z,0.40
2022-08-17T10:22:00.841Z,0.30
2022-08-17T10:25:33.446Z,0.40
2022-08-17T10:29:12.770Z,0.30
2022-08-17T10:32:28.297Z,0.30
2022-08-17T10:35:45.456Z,0.40
2022-08-17T10:38:49.983Z,0.50
2022-08-17T10:41:57.933Z,0.60
2022-08-17T10:45:15.471Z,0.50
2022-08-17T10:48:51.550Z,0.60
2022-08-17T10:51:56.721Z,0.50
2022-08-17T10:55:01.571Z,0.32
2022-08-17T10:58:22.145Z,0.45
2022-08-17T11:01:33.012Z,0.63
2022-08-17T11:04:58.919Z,0.40
2022-08-17T11:08:12.742Z,0.30
2022-08-17T11:11:51.031Z,0.40
2022-08-17T11:14:55.529Z,0.30
2022-08-17T11:18:01.618Z,0.40
2022-08-17T11:21:32.230Z,0.30
2022-08-17T11:24:38.801Z,0.30
2022-08-17T11:27:44.010Z,0.30
2022-08-17T11:30:54.094Z,0.30
2022-08-17T11:34:02.453Z,0.30
2022-08-17T11:37:40.216Z,0.30
2022-08-17T11:40:58.577Z,0.40
2022-08-17T11:44:24.552Z,0.25
2022-08-17T11:48:27.060Z,0.30
2022-08-17T11:51:55.912Z,0.20
2022-08-17T11:55:17.696Z,0.30
2022-08-17T11:58:30.608Z,0.30
2022-08-17T12:01:32.212Z,0.20
2022-08-17T12:04:35.959Z,0.30
2022-08-17T12:07:43.337Z,0.30
2022-08-17T12:10:55.978Z,0.30
2022-08-17T12:13:59.553Z,0.40
2022-08-17T12:17:12.669Z,0.80
2022-08-17T12:20:29.896Z,0.80
2022-08-17T12:23:48.277Z,0.90
2022-08-17T12:26:56.465Z,0.82
2022-08-17T12:29:59.317Z,0.57
2022-08-17T12:33:01.056Z,0.50
2022-08-17T12:36:07.486Z,0.40
2022-08-17T12:39:13.012Z,0.50
2022-08-17T12:42:31.163Z,0.40
2022-08-17T12:45:41.972Z,0.28
2022-08-17T12:48:58.725Z,0.30
2022-08-17T12:52:19.677Z,0.20
2022-08-17T12:55:26.305Z,0.20
2022-08-17T12:58:44.638Z,0.20
2022-08-17T13:01:46.621Z,0.20
2022-08-17T13:04:49.275Z,0.30
2022-08-17T13:07:53.468Z,0.30
2022-08-17T13:11:01.323Z,0.30
2022-08-17T13:14:11.937Z,0.30
2022-08-17T13:17:26.397Z,0.30
2022-08-17T13:20:28.172Z,0.50
2022-08-17T13:23:32.441Z,0.40
2022-08-17T13:26:43.083Z,0.40
2022-08-17T13:29:44.770Z,0.50
2022-08-17T13:32:48.326Z,0.50
2022-08-17T13:35:51.660Z,0.40
2022-08-17T13:39:07.781Z,0.45
2022-08-17T13:42:33.077Z,0.35
2022-08-17T13:45:43.518Z,0.38
2022-08-17T13:48:56.867Z,0.40
2022-08-17T13:51:58.733Z,0.45
2022-08-17T13:55:10.097Z,0.40
2022-08-17T13:58:11.949Z,0.40
2022-08-17T14:01:37.074Z,0.40
2022-08-17T14:04:41.127Z,0.35
2022-08-17T14:07:43.028Z,0.45
2022-08-17T14:10:49.668Z,0.50
2022-08-17T14:13:51.285Z,0.40
2022-08-17T14:16:53.865Z,0.28
2022-08-17T14:19:55.989Z,0.30
2022-08-17T14:22:58.172Z,0.40
2022-08-17T14:25:59.973Z,0.40
2022-08-17T14:29:01.866Z,0.30
2022-08-17T14:32:31.368Z,0.30
2022-08-17T14:35:33.066Z,0.30
2022-08-17T14:38:35.821Z,0.30
2022-08-17T14:41:39.054Z,0.40
2022-08-17T14:44:40.976Z,0.40
2022-08-17T14:47:42.703Z,0.50
2022-08-17T14:50:46.177Z,0.50
2022-08-17T14:53:49.076Z,0.30
2022-08-17T14:56:56.988Z,0.30
2022-08-17T15:00:13.288Z,0.28
2022-08-17T15:03:16.487Z,0.40
2022-08-17T15:06:18.072Z,0.40
2022-08-17T15:09:19.917Z,0.40
2022-08-17T15:12:26.426Z,0.40
2022-08-17T15:15:34.480Z,0.40
2022-08-17T15:18:36.716Z,0.30
2022-08-17T15:21:38.417Z,0.30
2022-08-17T15:24:40.074Z,0.30
2022-08-17T15:27:42.262Z,0.30
2022-08-17T15:30:45.089Z,0.30
2022-08-17T15:33:46.798Z,0.30
2022-08-17T15:36:49.381Z,0.30
2022-08-17T15:39:51.578Z,0.30
2022-08-17T15:42:53.514Z,0.32
2022-08-17T15:46:04.529Z,0.30
2022-08-17T15:49:06.308Z,0.30
2022-08-17T15:52:20.280Z,0.30
2022-08-17T15:55:24.166Z,0.20
2022-08-17T15:58:29.858Z,0.22
2022-08-17T16:02:54.741Z,0.30
2022-08-17T16:05:10.400Z,0.20
2022-08-17T16:08:13.916Z,0.22
2022-08-17T16:11:18.834Z,0.10
2022-08-17T16:14:20.437Z,0.20
2022-08-17T16:17:38.523Z,0.30
2022-08-17T16:20:42.708Z,0.20
2022-08-17T16:23:44.377Z,0.20
2022-08-17T16:26:45.933Z,0.20
2022-08-17T16:29:49.773Z,0.20
2022-08-17T16:33:00.421Z,0.13
2022-08-17T16:36:02.021Z,0.20
2022-08-17T16:39:04.758Z,0.30
2022-08-17T16:42:25.372Z,0.22
2022-08-17T16:45:29.448Z,0.30
2022-08-17T16:48:31.200Z,0.30
2022-08-17T16:51:32.804Z,0.30
2022-08-17T16:54:35.459Z,0.22
2022-08-17T16:57:47.263Z,0.28
2022-08-17T17:00:52.284Z,0.20
2022-08-17T17:03:58.440Z,0.30
2022-08-17T17:07:07.149Z,0.22
2022-08-17T17:10:12.505Z,0.20
2022-08-17T17:13:54.146Z,0.20
2022-08-17T17:17:12.705Z,0.20
2022-08-17T17:20:24.260Z,0.30
2022-08-17T17:23:42.739Z,0.20
2022-08-17T17:26:56.484Z,0.20
2022-08-17T17:30:21.642Z,0.20
2022-08-17T17:33:36.214Z,0.30
2022-08-17T17:37:08.698Z,0.20
2022-08-17T17:40:41.996Z,0.20
2022-08-17T17:43:43.594Z,0.20
2022-08-17T17:46:52.177Z,0.30
2022-08-17T17:49:53.914Z,0.30
2022-08-17T17:53:09.599Z,0.20
2022-08-17T17:56:43.588Z,0.32
2022-08-17T17:59:50.775Z,0.30
2022-08-17T18:02:58.239Z,0.40
2022-08-17T18:06:12.731Z,0.38
2022-08-17T18:10:05.429Z,0.35
2022-08-17T18:13:47.152Z,0.40
2022-08-17T18:16:55.894Z,0.50
2022-08-17T18:19:57.521Z,0.30
2022-08-17T18:22:59.182Z,0.30
2022-08-17T18:26:02.041Z,0.20
2022-08-17T18:29:34.608Z,0.30
2022-08-17T18:32:38.387Z,0.28
2022-08-17T18:35:58.745Z,0.30
2022-08-17T18:39:27.101Z,0.30
2022-08-17T18:42:29.567Z,0.28
2022-08-17T18:46:28.003Z,0.35
2022-08-17T18:49:30.702Z,0.40
2022-08-17T18:52:33.790Z,0.40
2022-08-17T18:55:35.460Z,0.40
2022-08-17T18:58:39.886Z,0.30
2022-08-17T19:01:59.982Z,0.38
2022-08-17T19:05:09.195Z,0.32
2022-08-17T19:08:29.208Z,0.40
2022-08-17T19:11:34.228Z,0.28
2022-08-17T19:14:36.679Z,0.30
2022-08-17T19:17:43.661Z,0.20
2022-08-17T19:21:06.027Z,0.20
2022-08-17T19:24:26.381Z,0.20
2022-08-17T19:28:04.293Z,0.20
2022-08-17T19:31:27.407Z,0.20
2022-08-17T19:34:33.972Z,0.20
2022-08-17T19:38:13.305Z,0.10
2022-08-17T19:41:28.371Z,0.15
2022-08-17T19:44:35.944Z,0.15
2022-08-17T19:47:55.120Z,0.22
2022-08-17T19:51:09.593Z,0.30
2022-08-17T19:54:15.144Z,0.20
2022-08-17T19:57:40.757Z,0.20
2022-08-17T20:00:50.060Z,0.20
2022-08-17T20:04:07.032Z,0.20
2022-08-17T20:07:43.576Z,0.10
2022-08-17T20:11:08.813Z,0.20
2022-08-17T20:14:18.776Z,0.13
2022-08-17T20:17:21.724Z,0.10
2022-08-17T20:20:55.736Z,0.15
2022-08-17T20:24:21.269Z,0.10
2022-08-17T20:27:32.219Z,0.20
2022-08-17T20:30:38.039Z,0.10
2022-08-17T20:33:39.749Z,0.10
2022-08-17T20:36:57.452Z,0.10
2022-08-17T20:39:58.986Z,0.10
2022-08-17T20:43:35.704Z,0.10
2022-08-17T20:46:37.610Z,0.20
2022-08-17T20:49:44.991Z,0.20
2022-08-17T20:52:51.779Z,0.10
2022-08-17T20:55:55.606Z,0.20
2022-08-17T20:58:59.042Z,0.10
2022-08-17T21:02:17.733Z,0.10
2022-08-17T21:06:00.032Z,0.10
2022-08-17T21:09:16.276Z,0.20
2022-08-17T21:12:41.913Z,0.10
2022-08-17T21:15:55.802Z,0.10
2022-08-17T21:19:17.972Z,0.10
2022-08-17T21:22:31.794Z,0.10
2022-08-17T21:26:03.264Z,0.20
2022-08-17T21:29:30.064Z,0.10
2022-08-17T21:32:36.076Z,0.10
2022-08-17T21:35:58.666Z,0.10
2022-08-17T21:39:06.455Z,0.10
2022-08-17T21:42:09.409Z,0.10
2022-08-17T21:45:20.714Z,0.10
2022-08-17T21:48:24.970Z,0.10
2022-08-17T21:51:28.976Z,0.10
2022-08-17T21:54:36.882Z,0.10
2022-08-17T21:57:41.901Z,0.13
2022-08-17T22:01:24.638Z,0.10
2022-08-17T22:04:29.583Z,0.20
2022-08-17T22:07:47.592Z,0.10
2022-08-17T22:10:51.217Z,0.20
2022-08-17T22:14:00.712Z,0.20
2022-08-17T22:17:26.356Z,0.40
2022-08-17T22:20:28.401Z,0.20
2022-08-17T22:23:56.749Z,0.20
2022-08-17T22:27:07.626Z,0.20
2022-08-17T22:30:25.645Z,0.20
2022-08-17T22:33:37.008Z,0.10
2022-08-17T22:36:40.480Z,0.20
2022-08-17T22:39:42.172Z,0.10
2022-08-17T22:42:49.942Z,0.10
2022-08-17T22:45:58.990Z,0.10
2022-08-17T22:49:00.741Z,0.10
2022-08-17T22:52:07.313Z,0.10
2022-08-17T22:55:35.645Z,0.10
2022-08-17T22:59:02.898Z,0.10
2022-08-17T23:02:13.745Z,0.10
2022-08-17T23:05:16.778Z,0.10
2022-08-17T23:08:21.287Z,0.10
2022-08-17T23:11:36.811Z,0.20
2022-08-17T23:14:57.451Z,0.10
2022-08-17T23:18:04.685Z,0.10
2022-08-17T23:21:07.697Z,0.10
2022-08-17T23:24:09.963Z,0.10
2022-08-17T23:27:12.353Z,0.10
2022-08-17T23:30:13.996Z,0.10
2022-08-17T23:33:24.219Z,0.17
2022-08-17T23:36:27.090Z,0.13
2022-08-17T23:39:28.933Z,0.10
2022-08-17T23:42:30.588Z,0.20
2022-08-17T23:45:32.273Z,0.20
2022-08-17T23:48:36.628Z,0.20
2022-08-17T23:51:43.992Z,0.20
2022-08-17T23:54:47.770Z,0.30
2022-08-17T23:57:50.014Z,0.20
